createdAt,value
2022-10-08T00:07:11.076Z,17.28
2022-10-08T00:17:12.734Z,15.88
2022-10-08T00:27:14.411Z,13.00
2022-10-08T00:37:16.875Z,14.03
2022-10-08T00:47:33.782Z,16.26
2022-10-08T00:57:36.314Z,17.19
2022-10-08T01:07:53.606Z,15.76
2022-10-08T01:17:58.658Z,15.14
2022-10-08T01:28:15.834Z,16.68
2022-10-08T01:38:19.521Z,17.27
2022-10-08T01:48:23.643Z,15.16
2022-10-08T01:58:37.898Z,16.09
2022-10-08T02:08:40.226Z,15.17
2022-10-08T02:18:45.799Z,15.61
2022-10-08T02:28:47.478Z,16.59
2022-10-08T02:38:51.973Z,15.04
2022-10-08T02:48:57.567Z,16.67
2022-10-08T02:58:59.738Z,14.91
2022-10-08T03:09:01.882Z,15.39
2022-10-08T03:19:04.456Z,16.59
2022-10-08T03:29:06.579Z,15.28
2022-10-08T03:39:11.975Z,15.79
2022-10-08T03:49:13.722Z,16.77
2022-10-08T03:59:15.370Z,14.49
2022-10-08T04:09:17.132Z,14.23
2022-10-08T04:19:18.908Z,16.31
2022-10-08T04:29:20.620Z,17.00
2022-10-08T04:39:22.397Z,15.27
2022-10-08T04:49:24.898Z,15.00
2022-10-08T04:59:26.618Z,16.92
2022-10-08T05:09:28.363Z,15.98
2022-10-08T05:19:30.028Z,13.32
2022-10-08T05:29:31.802Z,14.53
2022-10-08T05:39:33.763Z,16.92
2022-10-08T05:49:35.594Z,17.43
2022-10-08T05:59:37.646Z,14.86
2022-10-08T06:09:39.617Z,16.09
2022-10-08T06:19:41.331Z,18.71
2022-10-08T06:29:43.100Z,18.11
2022-10-08T06:39:48.321Z,15.95
2022-10-08T06:49:50.289Z,17.08
2022-10-08T06:59:54.683Z,19.43
2022-10-08T07:09:56.538Z,18.66
2022-10-08T07:19:58.571Z,16.59
2022-10-08T07:30:00.331Z,18.21
2022-10-08T07:40:02.590Z,21.27
2022-10-08T07:50:04.741Z,21.53
2022-10-08T08:00:07.023Z,20.32
2022-10-08T08:10:14.512Z,19.43
2022-10-08T08:20:16.235Z,21.41
2022-10-08T08:30:17.980Z,22.48
2022-10-08T08:40:19.853Z,21.09
2022-10-08T08:50:25.092Z,21.16
2022-10-08T09:00:35.632Z,21.74
2022-10-08T09:10:50.215Z,22.11
2022-10-08T09:20:52.000Z,23.24
2022-10-08T09:30:58.748Z,25.04
2022-10-08T09:41:06.066Z,23.66
2022-10-08T09:51:17.440Z,23.45
2022-10-08T10:01:19.547Z,22.93
2022-10-08T10:11:42.092Z,21.82
2022-10-08T10:21:43.834Z,21.02
2022-10-08T10:31:48.632Z,20.52
2022-10-08T10:41:50.692Z,22.38
2022-10-08T10:51:52.345Z,23.25
2022-10-08T11:02:00.820Z,21.63
2022-10-08T11:12:08.836Z,20.93
2022-10-08T11:22:19.502Z,20.68
2022-10-08T11:32:21.925Z,23.10
2022-10-08T11:42:47.516Z,24.66
2022-10-08T11:52:50.644Z,23.52
2022-10-08T12:02:53.678Z,23.16
2022-10-08T12:12:59.928Z,22.65
2022-10-08T12:23:04.495Z,22.34
2022-10-08T12:33:09.533Z,22.07
2022-10-08T12:43:15.728Z,21.79
2022-10-08T12:53:17.950Z,21.51
2022-10-08T13:03:21.957Z,21.22
2022-10-08T13:13:39.145Z,23.04
2022-10-08T13:23:40.819Z,23.98
2022-10-08T13:33:42.584Z,22.43
2022-10-08T13:43:44.515Z,21.62
2022-10-08T13:53:46.246Z,20.87
2022-10-08T14:03:48.198Z,22.19
2022-10-08T14:13:49.945Z,22.79
2022-10-08T14:23:51.623Z,20.82
2022-10-08T14:33:53.609Z,21.87
2022-10-08T14:43:55.526Z,22.25
2022-10-08T14:53:57.271Z,20.15
2022-10-08T15:03:59.197Z,21.05
2022-10-08T15:14:01.384Z,23.17
2022-10-08T15:24:03.163Z,22.17
2022-10-08T15:34:04.969Z,19.60
2022-10-08T15:44:21.165Z,20.26
2022-10-08T15:54:23.019Z,22.09
2022-10-08T16:04:24.932Z,22.67
2022-10-08T16:14:27.343Z,21.24
2022-10-08T16:24:29.159Z,18.62
2022-10-08T16:34:32.029Z,19.58
2022-10-08T16:44:34.277Z,21.63
2022-10-08T16:54:36.196Z,22.42
2022-10-08T17:04:39.783Z,21.34
2022-10-08T17:14:41.634Z,18.87
2022-10-08T17:24:44.046Z,19.89
2022-10-08T17:34:46.600Z,22.15
2022-10-08T17:44:48.652Z,21.37
2022-10-08T17:54:50.425Z,20.81
2022-10-08T18:04:52.285Z,22.19
2022-10-08T18:14:54.382Z,22.77
2022-10-08T18:24:56.705Z,23.15
2022-10-08T18:34:58.531Z,21.66
2022-10-08T18:45:00.820Z,21.09
2022-10-08T18:55:02.799Z,22.43
2022-10-08T19:05:04.923Z,22.80
2022-10-08T19:15:07.330Z,21.31
2022-10-08T19:25:09.161Z,20.68
2022-10-08T19:35:11.085Z,22.07
2022-10-08T19:45:13.904Z,20.69
2022-10-08T19:55:15.860Z,20.31
2022-10-08T20:05:17.910Z,21.83
2022-10-08T20:15:20.048Z,20.54
2022-10-08T20:25:21.830Z,19.95
2022-10-08T20:35:23.941Z,21.43
2022-10-08T20:45:26.145Z,20.19
2022-10-08T20:55:28.158Z,17.53
2022-10-08T21:05:31.657Z,18.31
2022-10-08T21:15:33.560Z,20.52
2022-10-08T21:25:35.584Z,19.55
2022-10-08T21:35:37.951Z,18.99
2022-10-08T21:45:39.952Z,20.26
2022-10-08T21:55:41.726Z,19.11
2022-10-08T22:06:03.368Z,18.64
2022-10-08T22:16:05.357Z,20.26
2022-10-08T22:26:11.842Z,18.97
2022-10-08T22:36:14.813Z,16.10
2022-10-08T22:46:16.580Z,16.84
2022-10-08T22:56:19.955Z,19.10
2022-10-08T23:06:23.846Z,19.99
2022-10-08T23:16:27.037Z,18.47
2022-10-08T23:26:29.158Z,15.46
2022-10-08T23:36:32.246Z,13.72
2022-10-08T23:46:34.151Z,15.01
2022-10-08T23:56:35.908Z,17.52
